Time;durP1;ratioP1;P1;durP2;ratioP2;P2;SDS_P1;SDS_P2;PMS_P1;PMS_P2;Temp;Humidity;BMP_temperature;BMP_pressure;BME280_temperature;BME280_humidity;BME280_pressure;Samples;Min_cycle;Max_cycle;Signal;HPM_P1;HPM_P2
2022/04/29 00:02:16;;;;;;;;;;;20.50;49.80;;;;;;5095340;28;19969;-53
2022/04/29 00:04:43;;;;;;;;;;;20.50;49.80;;;;;;5094976;28;20024;-48
2022/04/29 00:07:12;;;;;;;;;;;20.50;49.80;;;;;;5095006;28;20425;-46
2022/04/29 00:09:39;;;;;;;;;;;20.50;49.80;;;;;;5093325;28;19924;-47
2022/04/29 00:12:07;;;;;;;;;;;20.50;49.80;;;;;;5095071;28;19968;-45
2022/04/29 00:14:35;;;;;;;;;;;20.50;49.80;;;;;;5077427;28;19989;-45
2022/04/29 00:17:02;;;;;;;;;;;20.50;49.80;;;;;;5095103;28;19924;-46
2022/04/29 00:19:30;;;;;;;;;;;20.50;49.70;;;;;;5095120;28;19932;-45
2022/04/29 00:21:57;;;;;;;;;;;20.50;49.80;;;;;;5094721;28;19967;-46
2022/04/29 00:24:24;;;;;;;;;;;20.50;49.70;;;;;;5094494;28;20342;-44
2022/04/29 00:26:51;;;;;;;;;;;20.50;49.80;;;;;;5094115;28;19924;-44
2022/04/29 00:29:18;;;;;;;;;;;20.50;49.80;;;;;;5094711;28;19954;-43
2022/04/29 00:31:45;;;;;;;;;;;20.50;49.80;;;;;;5094961;28;20330;-43
2022/04/29 00:34:13;;;;;;;;;;;20.50;49.70;;;;;;5094312;28;20387;-45
2022/04/29 00:36:39;;;;;;;;;;;20.50;49.80;;;;;;5094832;28;20330;-44
2022/04/29 00:39:06;;;;;;;;;;;20.50;49.70;;;;;;5094511;28;19974;-45
2022/04/29 00:41:37;;;;;;;;;;;20.50;49.70;;;;;;5094351;28;19928;-45
2022/04/29 00:44:05;;;;;;;;;;;20.50;49.70;;;;;;5094522;28;19924;-45
2022/04/29 00:46:36;;;;;;;;;;;20.50;49.80;;;;;;5094680;28;20002;-45
2022/04/29 00:49:04;;;;;;;;;;;20.50;49.80;;;;;;5094376;28;19928;-53
2022/04/29 00:51:32;;;;;;;;;;;20.50;49.80;;;;;;5092971;28;19924;-47
2022/04/29 00:54:00;;;;;;;;;;;20.50;49.80;;;;;;5094670;28;19924;-50
2022/04/29 00:56:29;;;;;;;;;;;20.50;49.80;;;;;;5094353;28;19978;-44
2022/04/29 00:59:16;;;;;;;;;;;20.50;49.80;;;;;;5094469;28;20329;-44
2022/04/29 01:01:44;;;;;;;;;;;20.50;49.80;;;;;;5094088;28;19924;-44
2022/04/29 01:04:20;;;;;;;;;;;20.50;49.80;;;;;;5093899;28;19924;-44
2022/04/29 01:06:48;;;;;;;;;;;20.50;49.80;;;;;;5076057;28;19954;-44
2022/04/29 01:09:14;;;;;;;;;;;20.50;49.80;;;;;;5073553;28;19925;-45
2022/04/29 01:11:41;;;;;;;;;;;20.50;49.80;;;;;;5074122;28;19929;-45
2022/04/29 01:14:08;;;;;;;;;;;20.50;49.80;;;;;;5073344;28;19971;-44
2022/04/29 01:16:35;;;;;;;;;;;20.50;49.70;;;;;;5073612;28;19936;-44
2022/04/29 01:19:03;;;;;;;;;;;20.50;49.80;;;;;;5073962;28;20031;-44
2022/04/29 01:21:29;;;;;;;;;;;20.50;49.70;;;;;;5055452;28;20429;-44
2022/04/29 01:23:56;;;;;;;;;;;20.50;49.80;;;;;;5082065;28;19969;-45
2022/04/29 01:26:23;;;;;;;;;;;20.50;49.80;;;;;;5093957;28;19932;-46
2022/04/29 01:28:51;;;;;;;;;;;20.50;49.80;;;;;;5093676;28;19950;-44
2022/04/29 01:31:22;;;;;;;;;;;20.50;49.80;;;;;;5093792;28;19924;-46
2022/04/29 01:33:50;;;;;;;;;;;20.50;49.80;;;;;;5093778;28;19930;-46
2022/04/29 01:36:17;;;;;;;;;;;20.50;49.80;;;;;;5093437;28;19928;-46
2022/04/29 01:38:44;;;;;;;;;;;20.50;49.80;;;;;;5092717;28;19927;-45
2022/04/29 01:41:11;;;;;;;;;;;20.50;49.80;;;;;;5093890;28;19924;-45
2022/04/29 01:43:39;;;;;;;;;;;20.50;49.80;;;;;;5093509;28;19924;-47
2022/04/29 01:46:06;;;;;;;;;;;20.50;49.70;;;;;;5092173;28;19966;-46
2022/04/29 01:48:33;;;;;;;;;;;20.50;49.80;;;;;;5093678;28;19923;-44
2022/04/29 01:51:05;;;;;;;;;;;20.40;49.70;;;;;;5093214;28;19924;-46
2022/04/29 01:53:33;;;;;;;;;;;20.40;49.70;;;;;;5076361;28;19924;-45
2022/04/29 01:56:00;;;;;;;;;;;20.50;49.80;;;;;;5093305;28;20437;-46
2022/04/29 01:58:27;;;;;;;;;;;20.40;49.70;;;;;;5092946;28;19932;-49
2022/04/29 02:00:54;;;;;;;;;;;20.40;49.70;;;;;;5093510;28;19928;-45
2022/04/29 02:03:21;;;;;;;;;;;20.40;49.70;;;;;;5073244;28;20288;-46
2022/04/29 02:05:48;;;;;;;;;;;20.40;49.70;;;;;;5073322;28;19970;-45
2022/04/29 02:08:15;;;;;;;;;;;20.40;49.70;;;;;;5073016;28;19925;-47
2022/04/29 02:10:42;;;;;;;;;;;20.40;49.70;;;;;;5075283;28;19969;-45
2022/04/29 02:13:09;;;;;;;;;;;20.40;49.70;;;;;;5093120;28;19924;-45
2022/04/29 02:15:36;;;;;;;;;;;20.40;49.70;;;;;;5093280;28;19924;-52
2022/04/29 02:18:03;;;;;;;;;;;20.40;49.70;;;;;;5093512;28;20501;-45
2022/04/29 02:20:30;;;;;;;;;;;20.40;49.70;;;;;;5093098;28;19928;-45
2022/04/29 02:22:57;;;;;;;;;;;20.40;49.70;;;;;;5093065;28;19990;-45
2022/04/29 02:25:24;;;;;;;;;;;20.40;49.70;;;;;;5092983;28;19970;-50
2022/04/29 02:27:51;;;;;;;;;;;20.40;49.70;;;;;;5092884;28;19961;-47
2022/04/29 02:30:18;;;;;;;;;;;20.40;49.70;;;;;;5093292;28;19924;-48
2022/04/29 02:32:46;;;;;;;;;;;20.40;49.70;;;;;;5093278;28;19924;-49
2022/04/29 02:35:14;;;;;;;;;;;20.40;49.60;;;;;;5092623;28;19924;-47
2022/04/29 02:37:43;;;;;;;;;;;20.40;49.70;;;;;;5092546;28;20219;-45
2022/04/29 02:40:10;;;;;;;;;;;20.40;49.70;;;;;;5092843;28;19977;-45
2022/04/29 02:42:37;;;;;;;;;;;20.40;49.70;;;;;;5092059;28;19977;-45
2022/04/29 02:45:04;;;;;;;;;;;20.40;49.70;;;;;;5092857;28;19928;-47
2022/04/29 02:47:31;;;;;;;;;;;20.40;49.70;;;;;;5092837;28;19989;-48
2022/04/29 02:49:58;;;;;;;;;;;20.40;50.30;;;;;;5095732;28;19924;-46
2022/04/29 02:52:25;;;;;;;;;;;20.40;49.70;;;;;;5096608;28;19928;-46
2022/04/29 02:54:52;;;;;;;;;;;20.40;49.70;;;;;;5096535;28;19924;-49
2022/04/29 02:57:19;;;;;;;;;;;20.40;49.70;;;;;;5095244;28;19924;-47
2022/04/29 02:59:46;;;;;;;;;;;20.40;49.70;;;;;;5076251;28;19970;-47
2022/04/29 03:02:13;;;;;;;;;;;20.40;49.70;;;;;;5076136;28;20438;-48
2022/04/29 03:04:40;;;;;;;;;;;20.40;49.70;;;;;;5076296;28;20048;-51
2022/04/29 03:07:07;;;;;;;;;;;20.40;49.70;;;;;;5075993;28;20372;-49
2022/04/29 03:09:34;;;;;;;;;;;20.40;49.70;;;;;;5075929;28;19970;-48
2022/04/29 03:12:03;;;;;;;;;;;20.40;49.70;;;;;;5076204;28;20307;-51
2022/04/29 03:14:30;;;;;;;;;;;20.40;50.20;;;;;;5075888;28;19928;-53
2022/04/29 03:16:57;;;;;;;;;;;20.40;49.60;;;;;;5089229;28;19993;-49
2022/04/29 03:19:25;;;;;;;;;;;20.40;49.60;;;;;;5095875;28;19928;-49
2022/04/29 03:21:55;;;;;;;;;;;20.40;49.60;;;;;;5095954;28;19931;-47
2022/04/29 03:24:23;;;;;;;;;;;20.40;49.60;;;;;;5095452;28;19969;-49
2022/04/29 03:26:49;;;;;;;;;;;20.40;49.70;;;;;;5096142;28;20001;-47
2022/04/29 03:29:17;;;;;;;;;;;20.30;49.60;;;;;;5096092;28;19924;-50
2022/04/29 03:31:44;;;;;;;;;;;20.40;49.70;;;;;;5096008;28;19996;-52
2022/04/29 03:34:11;;;;;;;;;;;20.40;49.70;;;;;;5095902;28;19924;-50
2022/04/29 03:36:38;;;;;;;;;;;20.40;49.70;;;;;;5095796;28;19924;-51
2022/04/29 03:39:05;;;;;;;;;;;20.30;49.60;;;;;;5094305;28;19977;-46
2022/04/29 03:41:33;;;;;;;;;;;20.40;49.70;;;;;;5095622;28;19924;-52
2022/04/29 03:44:00;;;;;;;;;;;20.40;49.70;;;;;;5096054;28;19924;-53
2022/04/29 03:46:26;;;;;;;;;;;20.40;49.70;;;;;;5095811;28;20337;-50
2022/04/29 03:51:39;;;;;;;;;;;20.40;49.70;;;;;;5095479;28;19928;-47
2022/04/29 03:54:06;;;;;;;;;;;20.40;49.60;;;;;;5089499;28;19925;-53
2022/04/29 03:56:33;;;;;;;;;;;20.40;49.60;;;;;;5075430;28;19954;-50
2022/04/29 03:59:00;;;;;;;;;;;20.40;49.70;;;;;;5075049;28;20442;-51
2022/04/29 04:01:27;;;;;;;;;;;20.40;49.60;;;;;;5073979;28;19928;-45
2022/04/29 04:03:55;;;;;;;;;;;20.40;49.60;;;;;;5075450;28;19955;-46
2022/04/29 04:09:07;;;;;;;;;;;20.40;49.60;;;;;;5074705;28;19925;-46
2022/04/29 04:11:37;;;;;;;;;;;20.40;49.60;;;;;;5074649;28;19929;-46
2022/04/29 04:14:04;;;;;;;;;;;20.40;49.60;;;;;;5074698;28;19924;-51
2022/04/29 04:16:31;;;;;;;;;;;20.40;49.60;;;;;;5084462;28;20334;-50
2022/04/29 04:18:57;;;;;;;;;;;20.40;49.60;;;;;;5094870;28;19978;-50
2022/04/29 04:21:24;;;;;;;;;;;20.40;49.60;;;;;;5094676;28;19985;-48
2022/04/29 04:23:53;;;;;;;;;;;20.40;49.60;;;;;;5094534;28;20372;-51
2022/04/29 04:26:20;;;;;;;;;;;20.40;49.60;;;;;;5094863;28;19970;-45
2022/04/29 04:28:47;;;;;;;;;;;20.40;49.50;;;;;;5094681;28;19924;-45
2022/04/29 04:31:14;;;;;;;;;;;20.40;49.50;;;;;;5094562;28;19924;-48
2022/04/29 04:33:41;;;;;;;;;;;20.40;49.50;;;;;;5094760;28;19971;-44
2022/04/29 04:36:09;;;;;;;;;;;20.40;49.50;;;;;;5093348;28;20429;-48
2022/04/29 04:38:39;;;;;;;;;;;20.40;49.50;;;;;;5094920;28;19931;-45
2022/04/29 04:41:08;;;;;;;;;;;20.40;49.50;;;;;;5094800;28;19978;-45
2022/04/29 04:43:37;;;;;;;;;;;20.40;49.50;;;;;;5094448;28;19927;-45
2022/04/29 04:46:06;;;;;;;;;;;20.40;49.50;;;;;;5094765;28;19927;-45
2022/04/29 04:48:33;;;;;;;;;;;20.40;49.40;;;;;;5094513;28;19986;-45
2022/04/29 04:51:03;;;;;;;;;;;20.40;49.40;;;;;;5094013;28;19924;-48
2022/04/29 04:53:30;;;;;;;;;;;20.50;49.50;;;;;;5094659;28;19932;-45
2022/04/29 04:55:57;;;;;;;;;;;20.50;49.50;;;;;;5094401;28;19924;-44
2022/04/29 04:58:24;;;;;;;;;;;20.50;49.40;;;;;;5093956;28;19927;-47
2022/04/29 05:00:52;;;;;;;;;;;20.50;49.40;;;;;;5094377;28;19923;-44
2022/04/29 05:03:19;;;;;;;;;;;20.40;49.30;;;;;;5094266;28;19931;-46
2022/04/29 05:05:46;;;;;;;;;;;20.50;49.40;;;;;;5094080;28;19924;-44
2022/04/29 05:08:13;;;;;;;;;;;20.50;49.30;;;;;;5093774;28;20392;-47
2022/04/29 05:10:40;;;;;;;;;;;20.50;49.30;;;;;;5055775;28;19924;-45
2022/04/29 05:13:06;;;;;;;;;;;20.50;49.20;;;;;;5073882;28;20011;-45
2022/04/29 05:15:34;;;;;;;;;;;20.60;49.30;;;;;;5075410;28;19947;-45
2022/04/29 05:18:00;;;;;;;;;;;20.50;49.20;;;;;;5093862;28;19928;-44
2022/04/29 05:20:27;;;;;;;;;;;20.60;49.20;;;;;;5093905;28;19935;-45
2022/04/29 05:22:54;;;;;;;;;;;20.60;49.20;;;;;;5094031;28;19993;-45
2022/04/29 05:25:21;;;;;;;;;;;20.60;49.20;;;;;;5093969;28;20334;-48
2022/04/29 05:27:48;;;;;;;;;;;20.60;49.10;;;;;;5093684;28;19931;-45
2022/04/29 05:30:15;;;;;;;;;;;20.60;49.10;;;;;;5093743;28;20395;-46
2022/04/29 05:32:42;;;;;;;;;;;20.60;49.10;;;;;;5093151;28;19950;-47
2022/04/29 05:35:10;;;;;;;;;;;20.60;49.00;;;;;;5093832;28;19973;-46
2022/04/29 05:37:37;;;;;;;;;;;20.60;49.00;;;;;;5093493;28;19924;-47
2022/04/29 05:42:50;;;;;;;;;;;20.60;48.90;;;;;;5093727;28;20364;-46
2022/04/29 05:45:17;;;;;;;;;;;20.70;49.00;;;;;;5093701;28;19924;-46
2022/04/29 05:47:44;;;;;;;;;;;20.70;48.90;;;;;;5093105;28;19924;-46
2022/04/29 05:50:11;;;;;;;;;;;20.70;48.90;;;;;;5093415;28;20387;-46
2022/04/29 05:52:38;;;;;;;;;;;20.70;48.90;;;;;;5093514;28;19935;-46
2022/04/29 05:55:05;;;;;;;;;;;20.70;48.80;;;;;;5075658;28;19970;-48
2022/04/29 05:57:32;;;;;;;;;;;20.70;48.80;;;;;;5093443;28;19924;-45
2022/04/29 05:59:59;;;;;;;;;;;20.70;48.80;;;;;;5093357;28;20036;-45
2022/04/29 06:02:26;;;;;;;;;;;20.70;48.80;;;;;;5093414;28;20390;-45
2022/04/29 06:04:53;;;;;;;;;;;20.70;48.80;;;;;;5093457;28;19924;-48
2022/04/29 06:07:20;;;;;;;;;;;20.70;48.80;;;;;;5093169;28;20357;-46
2022/04/29 06:09:47;;;;;;;;;;;20.70;48.80;;;;;;5093119;28;19924;-46
2022/04/29 06:12:14;;;;;;;;;;;20.70;48.80;;;;;;5093014;28;19925;-46
2022/04/29 06:14:43;;;;;;;;;;;20.70;48.80;;;;;;5093495;28;19924;-45
2022/04/29 06:17:11;;;;;;;;;;;20.70;48.80;;;;;;5075714;28;20338;-46
2022/04/29 06:19:38;;;;;;;;;;;20.70;48.80;;;;;;5092867;28;19928;-46
2022/04/29 06:22:06;;;;;;;;;;;20.70;48.80;;;;;;5093160;28;19973;-49
2022/04/29 06:24:33;;;;;;;;;;;20.70;48.70;;;;;;5077339;28;19931;-50
2022/04/29 06:27:20;;;;;;;;;;;20.70;48.70;;;;;;5080738;28;19963;-48
2022/04/29 06:29:47;;;;;;;;;;;20.70;48.70;;;;;;5096761;28;19924;-46
2022/04/29 06:32:14;;;;;;;;;;;20.70;48.70;;;;;;5096872;28;19928;-46
2022/04/29 06:34:43;;;;;;;;;;;20.70;48.70;;;;;;5097188;28;20289;-52
2022/04/29 06:37:10;;;;;;;;;;;20.70;48.70;;;;;;5096993;28;19931;-52
2022/04/29 06:39:37;;;;;;;;;;;20.80;48.80;;;;;;5078958;28;19928;-49
2022/04/29 06:42:05;;;;;;;;;;;20.80;48.80;;;;;;5096513;28;20406;-53
2022/04/29 06:44:32;;;;;;;;;;;20.80;48.80;;;;;;5096675;28;19927;-54
2022/04/29 06:46:59;;;;;;;;;;;20.80;48.80;;;;;;5096617;28;20393;-51
2022/04/29 06:49:26;;;;;;;;;;;20.80;48.80;;;;;;5096614;28;19971;-46
2022/04/29 06:51:53;;;;;;;;;;;20.80;48.80;;;;;;5078631;28;20375;-53
2022/04/29 06:54:20;;;;;;;;;;;20.80;48.70;;;;;;5096281;28;19932;-49
2022/04/29 06:56:46;;;;;;;;;;;20.70;48.70;;;;;;5096668;28;20341;-54
2022/04/29 06:59:13;;;;;;;;;;;20.80;48.80;;;;;;5096199;28;20398;-47
2022/04/29 07:01:40;;;;;;;;;;;20.80;48.80;;;;;;5078308;28;19970;-52
2022/04/29 07:04:07;;;;;;;;;;;20.80;48.80;;;;;;5096354;28;19977;-46
2022/04/29 07:06:34;;;;;;;;;;;20.80;48.80;;;;;;5078644;28;19928;-50
2022/04/29 07:09:02;;;;;;;;;;;20.80;48.80;;;;;;5095986;28;20388;-49
2022/04/29 07:11:31;;;;;;;;;;;20.80;48.80;;;;;;5096131;28;19928;-47
2022/04/29 07:13:58;;;;;;;;;;;20.80;48.70;;;;;;5096283;28;19978;-50
2022/04/29 07:16:25;;;;;;;;;;;20.80;48.70;;;;;;5096372;28;19993;-50
2022/04/29 07:18:52;;;;;;;;;;;20.80;48.70;;;;;;5096441;28;19924;-48
2022/04/29 07:21:19;;;;;;;;;;;20.80;48.70;;;;;;5095762;28;19924;-47
2022/04/29 07:23:47;;;;;;;;;;;20.80;48.60;;;;;;5094851;28;19951;-45
2022/04/29 07:26:14;;;;;;;;;;;20.80;48.60;;;;;;5096209;28;20268;-49
2022/04/29 07:28:41;;;;;;;;;;;20.80;48.60;;;;;;5095622;28;19924;-46
2022/04/29 07:31:09;;;;;;;;;;;20.80;48.50;;;;;;5096045;28;19924;-53
2022/04/29 07:33:36;;;;;;;;;;;20.80;48.50;;;;;;5096130;28;20020;-49
2022/04/29 07:41:45;;;;;;;;;;;20.80;48.40;;;;;;5053322;28;20423;-50
2022/04/29 07:44:15;;;;;;;;;;;20.80;48.40;;;;;;5053107;28;20008;-49
2022/04/29 07:46:45;;;;;;;;;;;20.90;48.50;;;;;;5046734;28;19932;-54
2022/04/29 07:49:13;;;;;;;;;;;20.90;48.50;;;;;;5033169;28;19925;-47
2022/04/29 07:51:40;;;;;;;;;;;20.90;48.50;;;;;;5032960;28;20392;-49
2022/04/29 07:54:08;;;;;;;;;;;20.90;48.40;;;;;;5033168;28;19925;-50
2022/04/29 07:56:35;;;;;;;;;;;20.90;48.40;;;;;;5033110;28;19926;-51
2022/04/29 07:59:02;;;;;;;;;;;20.90;48.30;;;;;;5032800;28;19925;-45
2022/04/29 08:01:30;;;;;;;;;;;20.90;48.30;;;;;;5032975;28;19925;-45
2022/04/29 08:03:58;;;;;;;;;;;20.90;48.30;;;;;;5032848;28;19929;-48
2022/04/29 08:06:31;;;;;;;;;;;20.90;48.20;;;;;;5032911;28;19925;-45
2022/04/29 08:09:19;;;;;;;;;;;20.90;48.30;;;;;;5023504;28;20338;-51
2022/04/29 08:11:46;;;;;;;;;;;20.90;48.20;;;;;;5012825;28;19961;-45
2022/04/29 08:14:12;;;;;;;;;;;20.90;48.20;;;;;;5012962;28;20373;-49
2022/04/29 08:16:59;;;;;;;;;;;20.90;48.20;;;;;;5088338;28;19968;-46
2022/04/29 08:19:27;;;;;;;;;;;20.90;48.20;;;;;;5095292;28;19985;-46
2022/04/29 08:21:54;;;;;;;;;;;20.90;48.20;;;;;;5094535;28;19924;-48
2022/04/29 08:24:21;;;;;;;;;;;21.00;48.20;;;;;;5094440;28;19928;-45
2022/04/29 08:26:48;;;;;;;;;;;21.00;48.20;;;;;;5094669;28;19931;-46
2022/04/29 08:29:15;;;;;;;;;;;21.00;48.10;;;;;;5095030;28;19977;-46
2022/04/29 08:31:42;;;;;;;;;;;21.00;48.10;;;;;;5094639;28;20379;-46
2022/04/29 08:34:09;;;;;;;;;;;21.00;48.10;;;;;;5094633;28;19947;-44
2022/04/29 08:36:36;;;;;;;;;;;21.00;48.70;;;;;;5094808;28;19924;-45
2022/04/29 08:39:03;;;;;;;;;;;21.00;48.10;;;;;;5076598;28;19924;-45
2022/04/29 08:41:30;;;;;;;;;;;21.10;48.10;;;;;;5094779;28;19924;-45
2022/04/29 08:43:58;;;;;;;;;;;21.10;48.10;;;;;;5094451;28;19924;-45
2022/04/29 08:46:25;;;;;;;;;;;21.10;48.10;;;;;;5094228;28;20332;-50
2022/04/29 08:48:53;;;;;;;;;;;21.10;48.10;;;;;;5076440;28;19924;-51
2022/04/29 08:51:20;;;;;;;;;;;21.00;48.00;;;;;;5094409;28;19924;-54
2022/04/29 08:53:47;;;;;;;;;;;21.10;48.10;;;;;;5094188;28;20383;-47
2022/04/29 08:59:14;;;;;;;;;;;21.10;48.10;;;;;;5031725;28;19932;-51
2022/04/29 09:01:43;;;;;;;;;;;21.10;48.00;;;;;;5032035;28;20003;-46
2022/04/29 09:04:10;;;;;;;;;;;21.20;48.10;;;;;;5031715;28;20298;-45
2022/04/29 09:06:49;;;;;;;;;;;21.20;48.10;;;;;;5031793;28;19959;-45
2022/04/29 09:09:21;;;;;;;;;;;21.10;48.00;;;;;;5031430;28;19935;-45
2022/04/29 09:11:48;;;;;;;;;;;21.20;48.00;;;;;;5031855;28;19975;-47
2022/04/29 09:14:18;;;;;;;;;;;21.20;48.00;;;;;;5031616;28;19925;-45
2022/04/29 09:16:45;;;;;;;;;;;21.20;48.00;;;;;;5031188;28;19968;-46
2022/04/29 09:19:28;;;;;;;;;;;21.20;48.00;;;;;;5031493;28;19925;-45
2022/04/29 09:22:08;;;;;;;;;;;21.30;48.10;;;;;;5031419;28;19929;-45
2022/04/29 09:24:35;;;;;;;;;;;21.30;48.00;;;;;;5031413;28;19925;-46
2022/04/29 09:27:05;;;;;;;;;;;21.30;48.00;;;;;;5031433;28;19925;-46
2022/04/29 09:29:42;;;;;;;;;;;21.30;48.00;;;;;;5031125;28;19975;-46
2022/04/29 09:32:11;;;;;;;;;;;21.30;48.00;;;;;;5031439;28;20020;-45
2022/04/29 09:34:53;;;;;;;;;;;21.30;48.00;;;;;;5048486;28;20015;-52
2022/04/29 09:37:21;;;;;;;;;;;21.30;48.00;;;;;;5073733;28;19928;-45
2022/04/29 09:39:56;;;;;;;;;;;21.30;48.10;;;;;;5073569;28;19947;-46
2022/04/29 09:42:23;;;;;;;;;;;21.30;48.10;;;;;;5073150;28;19928;-46
2022/04/29 09:44:50;;;;;;;;;;;21.30;48.10;;;;;;5073226;28;19924;-45
2022/04/29 09:47:21;;;;;;;;;;;21.30;48.10;;;;;;5073095;28;20335;-45
2022/04/29 09:49:56;;;;;;;;;;;21.30;48.10;;;;;;5073284;28;19954;-48
2022/04/29 09:52:23;;;;;;;;;;;21.30;48.10;;;;;;5073143;28;19924;-45
2022/04/29 09:54:50;;;;;;;;;;;21.40;48.30;;;;;;5073348;28;19925;-48
2022/04/29 09:57:24;;;;;;;;;;;21.30;48.20;;;;;;5073441;28;19993;-47
2022/04/29 09:59:52;;;;;;;;;;;21.40;48.30;;;;;;5073107;28;19925;-51
2022/04/29 10:02:23;;;;;;;;;;;21.30;48.30;;;;;;5073467;28;19970;-48
2022/04/29 10:04:51;;;;;;;;;;;21.40;48.40;;;;;;5073112;28;20372;-51
2022/04/29 10:07:20;;;;;;;;;;;21.30;48.30;;;;;;5073106;28;19929;-53
2022/04/29 10:09:49;;;;;;;;;;;21.40;48.40;;;;;;5073041;28;19933;-46
2022/04/29 10:12:17;;;;;;;;;;;21.30;48.40;;;;;;5072757;28;19925;-49
2022/04/29 10:14:45;;;;;;;;;;;21.30;48.40;;;;;;5073346;28;19924;-48
2022/04/29 10:22:51;;;;;;;;;;;21.30;48.40;;;;;;5074311;28;19932;-48
2022/04/29 10:25:20;;;;;;;;;;;21.40;48.50;;;;;;5092957;28;20383;-49
2022/04/29 10:27:50;;;;;;;;;;;21.40;48.50;;;;;;5093256;28;19924;-46
2022/04/29 10:30:24;;;;;;;;;;;21.40;48.50;;;;;;5093304;28;19996;-50
2022/04/29 10:32:59;;;;;;;;;;;21.40;48.50;;;;;;5093388;28;19954;-49
2022/04/29 10:35:47;;;;;;;;;;;21.40;48.50;;;;;;5093133;28;19928;-49
2022/04/29 10:38:14;;;;;;;;;;;21.30;48.50;;;;;;5074697;28;19924;-46
2022/04/29 10:40:41;;;;;;;;;;;21.40;48.50;;;;;;5093221;28;19928;-48
2022/04/29 10:43:09;;;;;;;;;;;21.40;48.60;;;;;;5092875;28;19928;-44
2022/04/29 10:45:57;;;;;;;;;;;21.40;48.50;;;;;;5092846;28;19924;-44
2022/04/29 10:48:38;;;;;;;;;;;21.40;48.50;;;;;;5072532;28;19931;-44
2022/04/29 10:51:11;;;;;;;;;;;21.40;48.50;;;;;;5072947;28;19929;-49
2022/04/29 10:53:41;;;;;;;;;;;21.40;48.50;;;;;;5073045;28;19932;-43
2022/04/29 10:56:27;;;;;;;;;;;21.40;48.60;;;;;;5072983;28;19929;-44
2022/04/29 10:58:58;;;;;;;;;;;21.40;48.60;;;;;;5072742;28;19925;-44
2022/04/29 11:01:27;;;;;;;;;;;21.40;48.50;;;;;;5072654;28;19932;-44
2022/04/29 11:03:55;;;;;;;;;;;21.40;48.50;;;;;;5072914;28;19925;-45
2022/04/29 11:06:34;;;;;;;;;;;21.40;48.60;;;;;;5072448;28;19925;-45
2022/04/29 11:09:02;;;;;;;;;;;21.40;48.50;;;;;;5078824;28;20372;-44
2022/04/29 11:11:44;;;;;;;;;;;21.40;48.50;;;;;;5095859;28;19959;-44
2022/04/29 11:14:12;;;;;;;;;;;21.40;48.50;;;;;;5096284;28;19924;-44
2022/04/29 11:16:52;;;;;;;;;;;21.40;48.50;;;;;;5095939;28;19978;-46
2022/04/29 11:19:21;;;;;;;;;;;21.40;48.50;;;;;;5096193;28;20393;-45
2022/04/29 11:24:49;;;;;;;;;;;21.40;48.50;;;;;;5096036;28;19973;-44
2022/04/29 11:27:24;;;;;;;;;;;21.40;48.50;;;;;;5095853;28;19954;-46
2022/04/29 11:29:52;;;;;;;;;;;21.40;48.50;;;;;;5096078;28;19974;-45
2022/04/29 11:32:23;;;;;;;;;;;21.40;48.50;;;;;;5095808;28;19928;-45
2022/04/29 11:34:52;;;;;;;;;;;21.40;48.50;;;;;;5096431;28;19950;-45
2022/04/29 11:37:23;;;;;;;;;;;21.40;48.40;;;;;;5090804;28;20291;-45
2022/04/29 11:39:51;;;;;;;;;;;21.40;48.40;;;;;;5095628;28;19924;-45
2022/04/29 11:42:19;;;;;;;;;;;21.40;48.40;;;;;;5095835;28;20311;-45
2022/04/29 11:44:49;;;;;;;;;;;21.40;48.40;;;;;;5095554;28;19973;-46
2022/04/29 11:47:17;;;;;;;;;;;21.40;48.40;;;;;;5084335;28;19924;-45
2022/04/29 11:49:44;;;;;;;;;;;21.40;48.40;;;;;;5075662;28;19924;-47
2022/04/29 11:52:17;;;;;;;;;;;21.40;48.40;;;;;;5075094;28;20426;-46
2022/04/29 11:54:53;;;;;;;;;;;21.40;48.40;;;;;;5075639;28;20384;-46
2022/04/29 11:57:23;;;;;;;;;;;21.40;48.40;;;;;;5075506;28;20020;-46
2022/04/29 11:59:50;;;;;;;;;;;21.40;48.40;;;;;;5075091;28;19925;-47
2022/04/29 12:02:25;;;;;;;;;;;21.40;48.40;;;;;;5075399;28;19924;-47
2022/04/29 12:04:53;;;;;;;;;;;21.40;48.30;;;;;;5076937;28;19924;-48
2022/04/29 12:07:21;;;;;;;;;;;21.40;48.30;;;;;;5095072;28;19924;-46
2022/04/29 12:09:48;;;;;;;;;;;21.40;48.30;;;;;;5094976;28;19924;-46
2022/04/29 12:12:25;;;;;;;;;;;21.40;48.30;;;;;;5095164;28;19928;-49
2022/04/29 12:14:52;;;;;;;;;;;21.40;48.30;;;;;;5095517;28;19931;-47
2022/04/29 12:17:30;;;;;;;;;;;21.40;48.30;;;;;;5095108;28;19982;-46
2022/04/29 12:19:57;;;;;;;;;;;21.40;48.30;;;;;;5095217;28;20325;-48
2022/04/29 12:22:31;;;;;;;;;;;21.40;48.30;;;;;;5094687;28;19947;-47
2022/04/29 12:25:16;;;;;;;;;;;21.40;48.20;;;;;;5094844;28;20337;-47
2022/04/29 12:27:43;;;;;;;;;;;21.40;48.20;;;;;;5095014;28;20375;-49
2022/04/29 12:36:06;;;;;;;;;;;21.50;48.30;;;;;;5074522;28;19924;-46
2022/04/29 12:38:34;;;;;;;;;;;21.40;48.10;;;;;;5074673;28;19924;-45
2022/04/29 12:41:13;;;;;;;;;;;21.50;48.30;;;;;;5074301;28;19925;-46
2022/04/29 12:43:41;;;;;;;;;;;21.50;48.20;;;;;;5074465;28;20310;-45
2022/04/29 12:46:14;;;;;;;;;;;21.40;48.10;;;;;;5074337;28;20369;-45
2022/04/29 12:48:47;;;;;;;;;;;21.50;48.20;;;;;;5073968;28;19925;-47
2022/04/29 12:51:28;;;;;;;;;;;21.50;48.20;;;;;;5073835;28;20373;-45
2022/04/29 12:53:56;;;;;;;;;;;21.50;48.20;;;;;;5074173;28;19970;-45
2022/04/29 12:56:30;;;;;;;;;;;21.40;48.10;;;;;;5074025;28;19925;-46
2022/04/29 12:58:58;;;;;;;;;;;21.40;48.10;;;;;;5074092;28;19977;-46
2022/04/29 13:01:25;;;;;;;;;;;21.50;48.10;;;;;;5078379;28;20330;-47
2022/04/29 13:03:54;;;;;;;;;;;21.50;48.10;;;;;;5094458;28;19924;-45
2022/04/29 13:06:23;;;;;;;;;;;21.50;48.20;;;;;;5094312;28;19928;-44
2022/04/29 13:08:52;;;;;;;;;;;21.50;48.20;;;;;;5088874;28;20304;-45
2022/04/29 13:11:19;;;;;;;;;;;21.40;48.10;;;;;;5074745;28;19924;-44
2022/04/29 13:13:47;;;;;;;;;;;21.50;48.10;;;;;;5093947;28;19977;-45
2022/04/29 13:16:15;;;;;;;;;;;21.40;48.10;;;;;;5094351;28;20334;-48
2022/04/29 13:18:43;;;;;;;;;;;21.40;48.10;;;;;;5094180;28;19978;-44
2022/04/29 13:21:11;;;;;;;;;;;21.50;48.10;;;;;;5093830;28;19928;-47
2022/04/29 13:23:39;;;;;;;;;;;21.50;48.10;;;;;;5093927;28;19928;-46
2022/04/29 13:26:06;;;;;;;;;;;21.50;48.10;;;;;;5093770;28;20429;-46
2022/04/29 13:28:34;;;;;;;;;;;21.50;48.10;;;;;;5093520;28;19924;-49
2022/04/29 13:31:02;;;;;;;;;;;21.50;48.10;;;;;;5094007;28;19928;-45
2022/04/29 13:33:29;;;;;;;;;;;21.50;48.10;;;;;;5092847;28;19999;-46
2022/04/29 13:35:56;;;;;;;;;;;21.50;48.30;;;;;;5093682;28;19931;-46
2022/04/29 13:38:24;;;;;;;;;;;21.50;48.20;;;;;;5093770;28;19974;-44
2022/04/29 13:40:51;;;;;;;;;;;21.50;48.10;;;;;;5073507;28;20308;-46
2022/04/29 13:43:20;;;;;;;;;;;21.50;48.10;;;;;;5073177;28;19974;-46
2022/04/29 13:45:47;;;;;;;;;;;21.50;48.10;;;;;;5073833;28;20335;-53
2022/04/29 13:48:15;;;;;;;;;;;21.50;48.10;;;;;;5073224;28;19931;-49
2022/04/29 13:50:42;;;;;;;;;;;21.50;48.10;;;;;;5073148;28;20387;-51
2022/04/29 13:53:11;;;;;;;;;;;21.50;48.10;;;;;;5073104;28;19925;-46
2022/04/29 13:55:40;;;;;;;;;;;21.50;48.10;;;;;;5073224;28;19971;-51
2022/04/29 13:58:08;;;;;;;;;;;21.50;48.10;;;;;;5081455;28;19924;-47
2022/04/29 14:00:35;;;;;;;;;;;21.50;48.10;;;;;;5075810;28;19928;-51
2022/04/29 14:03:02;;;;;;;;;;;21.50;48.10;;;;;;5093501;28;19993;-52
2022/04/29 14:05:31;;;;;;;;;;;21.50;48.10;;;;;;5093201;28;19978;-46
2022/04/29 14:07:58;;;;;;;;;;;21.50;48.10;;;;;;5093155;28;19928;-51
2022/04/29 14:10:25;;;;;;;;;;;21.50;48.10;;;;;;5074568;28;19924;-46
2022/04/29 14:12:52;;;;;;;;;;;21.50;48.10;;;;;;5087292;28;20276;-46
2022/04/29 14:15:19;;;;;;;;;;;21.50;48.10;;;;;;5093533;28;19990;-44
2022/04/29 14:17:46;;;;;;;;;;;21.50;48.10;;;;;;5093166;28;20437;-44
2022/04/29 14:20:13;;;;;;;;;;;21.50;48.10;;;;;;5093362;28;19928;-44
2022/04/29 14:22:41;;;;;;;;;;;21.50;48.10;;;;;;5093316;28;19974;-44
2022/04/29 14:25:13;;;;;;;;;;;21.50;48.10;;;;;;5093420;28;19947;-44
2022/04/29 14:27:40;;;;;;;;;;;21.50;48.10;;;;;;5093094;28;19924;-45
2022/04/29 14:30:08;;;;;;;;;;;21.50;48.10;;;;;;5093503;28;19924;-44
2022/04/29 14:32:35;;;;;;;;;;;21.50;48.00;;;;;;5093155;28;19969;-45
2022/04/29 14:35:04;;;;;;;;;;;21.50;48.00;;;;;;5093021;28;19973;-45
2022/04/29 14:37:31;;;;;;;;;;;21.50;48.00;;;;;;5092753;28;19935;-46
2022/04/29 14:39:59;;;;;;;;;;;21.60;48.10;;;;;;5093293;28;20346;-45
2022/04/29 14:42:26;;;;;;;;;;;21.50;47.90;;;;;;5093044;28;19938;-45
2022/04/29 14:44:54;;;;;;;;;;;21.60;48.00;;;;;;5093881;28;19924;-46
2022/04/29 14:47:21;;;;;;;;;;;21.60;48.00;;;;;;5078871;28;19924;-44
2022/04/29 14:49:49;;;;;;;;;;;21.60;48.00;;;;;;5097269;28;19932;-45
2022/04/29 14:52:16;;;;;;;;;;;21.60;47.90;;;;;;5096514;28;20380;-45
2022/04/29 14:54:48;;;;;;;;;;;21.60;47.90;;;;;;5095508;28;19928;-45
2022/04/29 14:57:15;;;;;;;;;;;21.60;47.90;;;;;;5096504;28;19931;-44